• Join FlightAware (Why Join?)
  • Login
  • US Flag 
05:48AM EST


 

Airport Tracker/Info


-or-


 

Live Flight TrackerFlight Track Log ✈ SWA1718 ✈ 25-Apr-2013 ✈ KAMA - KDEN

Flight Track Log - Related Links

Times and Time Zones

All times are in EDT time to prevent confusion due to time zone crossing. See the SWA1718 flight status page for this flight to view local times or setup timezone preferences in your user account.

Time Position Orientation Groundspeed Altitude Reporting Facility
EDT Latitude Longitude Course Direction KTS MPH feet Rate Location/Type
05:29PM 35.3061 -101.8072 349° North 262 302 8,700  Level Albuquerque Center
05:30PM 35.3881 -101.8456 339° North 306 352 10,600 2,100 Climbing Albuquerque Center
05:31PM 35.4792 -101.8850 341° North 335 386 13,100 2,100 Climbing Albuquerque Center
05:32PM 35.5733 -101.9256 341° North 351 404 15,000 2,040 Climbing Albuquerque Center
05:33PM 35.8097 -101.9672 342° North  Level FlightAware Approximate
05:33PM 35.6728 -101.9644 342° North 369 425 17,400  Level Albuquerque Center
05:34PM 35.7792 -101.9917 348° North 385 443 19,300 1,740 Climbing Albuquerque Center
05:35PM 35.8856 -102.0161 349° North 389 448 21,000 1,920 Climbing Albuquerque Center
05:36PM 36.0164 -102.0453 350° North 395 455 23,300 1,740 Climbing Albuquerque Center
05:37PM 36.1272 -102.0700 350° North 401 461 24,600 1,140 Climbing Albuquerque Center
05:38PM 36.2342 -102.1122 342° North 400 460 25,700 1,080 Climbing Albuquerque Center
05:39PM 36.3397 -102.1678 337° Northwest 408 470 26,900 1,140 Climbing Albuquerque Center
05:40PM 36.4475 -102.2228 338° Northwest 415 478 28,100 1,080 Climbing Albuquerque Center
05:41PM 36.5558 -102.2781 338° Northwest 421 484 29,200 1,320 Climbing Albuquerque Center
05:42PM 36.6856 -102.3458 337° Northwest 420 483 30,900 1,200 Climbing Albuquerque Center
05:43PM 36.7925 -102.4006 338° Northwest 418 481 31,800 1,200 Climbing Albuquerque Center
05:44PM 36.9064 -102.4594 338° Northwest 423 487 33,400 1,020 Climbing Albuquerque Center
05:45PM 37.0072 -102.5119 337° Northwest 414 476 34,000 240 Climbing Albuquerque Center
05:47PM 37.1200 -102.5714 337° Northwest 406 467 34,000  Level Albuquerque Center
05:48PM 37.2225 -102.6250 337° Northwest 413 475 34,000  Level Albuquerque Center
05:49PM 37.3433 -102.6889 337° Northwest 420 483 34,000  Level Albuquerque Center
05:50PM 37.4492 -102.7444 337° Northwest 426 490 34,000  Level Albuquerque Center
05:50PM 37.5572 -102.7933 340° North 431 496 34,000  Level Denver Center
05:52PM 37.6717 -102.8292 346° North 441 507 34,000  Level Denver Center
05:53PM 37.8056 -102.8714 346° North 445 512 34,000  Level Denver Center
05:54PM 37.9208 -102.9064 347° North 445 512 34,000  Level Denver Center
05:55PM 38.0422 -102.9447 346° North 443 510 34,000  Level Denver Center
05:56PM 38.1733 -102.9872 346° North 436 502 34,000 -420 Level Denver Center
05:57PM 38.2850 -103.0214 346° North 431 496 33,200 -900 Descending Denver Center
05:58PM 38.4003 -103.0964 333° Northwest 423 487 32,200 -960 Descending Denver Center
05:59PM 38.4781 -103.1903 317° Northwest 406 467 31,300 -1,020 Descending Denver Center
06:00PM 38.5756 -103.3017 318° Northwest 417 480 30,200 -660 Descending Denver Center
06:01PM 38.6589 -103.4019 317° Northwest 402 463 30,000 -240 Descending Denver Center
06:02PM 38.7319 -103.4900 317° Northwest 383 441 29,800 -540 Descending Denver Center
06:03PM 38.8228 -103.5961 318° Northwest 392 451 28,900 -960 Descending Denver Center
06:04PM 38.9156 -103.7064 317° Northwest 405 466 27,700 -1,080 Descending Denver Center
06:05PM 39.0042 -103.8150 316° Northwest 395 455 26,500 -1,140 Descending Denver Center
06:06PM 39.0817 -103.9094 317° Northwest 374 430 25,400 -1,020 Descending Denver Center
06:07PM 39.1578 -104.0000 317° Northwest 365 420 24,400 -1,560 Descending Denver Center
06:08PM 39.2308 -104.0869 317° Northwest 369 425 22,200 -1,740 Descending Denver Center
06:09PM 39.3219 -104.1756 323° Northwest 357 411 20,900 -1,620 Descending Denver Center
06:10PM 39.3989 -104.2422 326° Northwest 335 386 18,900 -1,920 Descending Denver Center
06:11PM 39.4828 -104.3069 329° Northwest 327 376 17,000 -960 Descending Denver Center
06:12PM 39.5500 -104.3650 326° Northwest 293 337 17,000 -360 Level Denver Center
06:13PM 39.6253 -104.4236 329° Northwest 293 337 16,300 -1,020 Descending Denver Center
06:14PM 39.6914 -104.4789 327° Northwest 286 329 15,000 -1,440 Descending Denver Center
06:16PM 39.7636 -104.5247 334° Northwest 271 312 13,400 -1,500 Descending Denver Center
06:17PM 39.8381 -104.5231 North 271 312 12,000 -1,080 Descending Denver Center
06:18PM 39.9161 -104.5228 360° North 264 304 11,200 -900 Descending Denver Center
06:19PM 39.9875 -104.5200 North 258 297 10,200 -1,320 Descending Denver Center
06:20PM 40.0561 -104.5461 344° North 245 282 8,500 -1,140 Descending Denver Center
06:21PM 40.0500 -104.6167 264° West 221 254 8,000 -720 Descending Denver TRACON
06:22PM 40.0167 -104.6667 229° Southwest 194 223 7,100 -720 Descending Denver TRACON
06:23PM 39.9606 -104.6869 195° South 189 217 6,600 -660 Descending Denver Center
06:24PM 39.9142 -104.6867 180° South 156 180 5,800 -600 Descending Denver Center
06:25PM 39.8772 -104.6872 181° South 150 173 5,400 -420 Descending Denver Center
06:27PM 39.8617 -104.6732 218° Southwest  Level Estimated
06:34PM 39.8617 -104.6732 218° Southwest  Level Estimated
06:35PM 39.8617 -104.6732 218° Southwest  Level Estimated